Robert Franco — WDG7687 — position and weather

sailwx.info

Track history (hours):
 
Tides and Currents Weather Stations Pressure Air Temp Water Temp Dewpoint Dewpoint Depression Visibility Wind Speed Wind Dir Waves Ship Positions

Robert Franco

Owner: Harley Marine Services, Inc, Seattle, WA. More information available from US FCC via Universal Licensing System and Coast Guard Vessel Documentation Center.

Last reported at 2018-Jul-19 22:35 UTC. Time now 2018-Jul-19 23:14 UTC.
Position N 33°45' W 118°16'.

Length 30 m; draft 5.7 m.

Type: Tow > 200 m length. MMSI: 367569830.

Date/timePositionNaut miles runAvg speedWind from/ knotsBaromVisibWave heightAir tempDewpointWater temp
2018-Jul-19 22:35N 33°45' W 118°16'0 0.2
2018-Jul-19 22:29N 33°45' W 118°16'1 0.4
2018-Jul-19 18:31N 33°44' W 118°16'0 0.0
2018-Jul-19 15:16N 33°44' W 118°16'3 2.0
2018-Jul-19 13:46N 33°44' W 118°12'2 8.5
2018-Jul-19 13:30N 33°44' W 118°09'1 1.0
2018-Jul-19 12:54N 33°44' W 118°10'3 3.4
2018-Jul-19 12:07N 33°45' W 118°13'0 0.0
2018-Jul-19 11:57N 33°45' W 118°13'0 0.0
2018-Jul-19 11:11N 33°45' W 118°13'0 0.0
2018-Jul-19 10:57N 33°45' W 118°13'0 0.0
2018-Jul-19 09:12N 33°45' W 118°13'0 0.0
2018-Jul-19 08:42N 33°45' W 118°13'2 0.3
2018-Jul-19 01:53N 33°46' W 118°16'1 0.1
2018-Jul-18 21:12N 33°45' W 118°16'1 2.5
2018-Jul-18 20:38N 33°44' W 118°16'0 0.0
2018-Jul-18 20:28N 33°44' W 118°16'0 0.0
2018-Jul-18 19:43N 33°44' W 118°16'0 0.0
2018-Jul-18 19:26N 33°44' W 118°16'0 0.0
2018-Jul-18 19:01N 33°44' W 118°16'0 0.0
2018-Jul-18 18:29N 33°44' W 118°16'0 0.0
2018-Jul-18 17:52N 33°44' W 118°16'0 0.0
2018-Jul-18 17:27N 33°44' W 118°16'1 0.6
2018-Jul-18 15:28N 33°45' W 118°16'0 0.0
2018-Jul-18 13:42N 33°45' W 118°16'1 0.4
2018-Jul-18 11:59N 33°46' W 118°16'1 0.1
2018-Jul-18 02:26N 33°45' W 118°16'4 1.5
2018-Jul-17 23:56N 33°44' W 118°12'2 4.0
2018-Jul-17 23:28N 33°44' W 118°10'0 0.0
2018-Jul-17 22:58N 33°44' W 118°10'3 2.5
2018-Jul-17 21:48N 33°45' W 118°13'2 7.4
2018-Jul-17 21:30N 33°43' W 118°11'1 1.0
2018-Jul-17 21:00N 33°44' W 118°12'3 3.5
2018-Jul-17 20:03N 33°44' W 118°16'0 0.0
2018-Jul-17 19:51N 33°44' W 118°16'0 0.0
2018-Jul-17 19:21N 33°44' W 118°16'1 0.4
2018-Jul-17 17:04N 33°44' W 118°17'0 7.9
2018-Jul-17 17:00N 33°45' W 118°16'0 0.7
2018-Jul-17 16:25N 33°45' W 118°16'0 0.1
2018-Jul-17 15:58N 33°45' W 118°16'4 4.4
2018-Jul-17 15:01N 33°42' W 118°13'0 0.3
2018-Jul-17 15:00N 33°42' W 118°13'4 0.2
2018-Jul-16 22:48N 33°45' W 118°17'1 3.9
2018-Jul-16 22:30N 33°46' W 118°16'0 0.8
2018-Jul-16 22:00N 33°45' W 118°17'2 0.5
2018-Jul-16 18:23N 33°44' W 118°16'0 0.0
2018-Jul-16 17:55N 33°44' W 118°16'0 0.0
2018-Jul-16 17:31N 33°44' W 118°16'0 0.0
2018-Jul-16 16:42N 33°44' W 118°16'0 0.0
2018-Jul-16 16:25N 33°44' W 118°16'2 1.6
2018-Jul-16 14:58N 33°46' W 118°15'2 0.7
2018-Jul-16 12:39N 33°45' W 118°16'0 0.6
2018-Jul-16 12:23N 33°45' W 118°16'0 0.1
2018-Jul-16 11:59N 33°45' W 118°16'0 0.0
2018-Jul-16 02:29N 33°45' W 118°16'1 0.2
2018-Jul-15 22:55N 33°45' W 118°16'3 5.6
2018-Jul-15 22:20N 33°43' W 118°13'1 3.4
2018-Jul-15 21:58N 33°44' W 118°12'1 1.2
2018-Jul-15 21:30N 33°44' W 118°11'2 3.0
2018-Jul-15 20:44N 33°42' W 118°13'3 8.1
2018-Jul-15 20:22N 33°44' W 118°16'0 0.0
2018-Jul-15 19:56N 33°44' W 118°16'0 0.0
2018-Jul-15 18:07N 33°44' W 118°16'0 0.0
2018-Jul-15 13:56N 33°44' W 118°16'1 3.1
2018-Jul-15 13:30N 33°45' W 118°16'0 0.7
2018-Jul-15 13:00N 33°45' W 118°16'0 0.3
2018-Jul-15 11:31N 33°45' W 118°16'3 0.3
2018-Jul-15 01:24N 33°44' W 118°13'0 0.0
2018-Jul-15 00:57N 33°44' W 118°13'0 0.0
2018-Jul-14 23:52N 33°44' W 118°13'2 0.5
2018-Jul-14 19:24N 33°44' W 118°16'0 0.0
2018-Jul-14 18:59N 33°44' W 118°16'2 1.6
2018-Jul-14 17:38N 33°44' W 118°13'1 0.4
2018-Jul-14 16:10N 33°43' W 118°13'1 8.6
2018-Jul-14 16:00N 33°44' W 118°12'4 8.7
2018-Jul-14 15:30N 33°44' W 118°07'1 2.0
2018-Jul-14 14:59N 33°44' W 118°06'4 4.3
2018-Jul-14 14:00N 33°44' W 118°11'2 4.1
2018-Jul-14 13:26N 33°45' W 118°13'1 2.9
2018-Jul-14 13:01N 33°46' W 118°13'0 0.0
2018-Jul-14 12:27N 33°46' W 118°13'0 0.0
2018-Jul-14 12:00N 33°46' W 118°13'0 0.0
2018-Jul-14 11:30N 33°46' W 118°13'1 1.1
2018-Jul-14 10:47N 33°45' W 118°13'0 0.7
2018-Jul-14 10:30N 33°45' W 118°13'1 2.6
2018-Jul-14 09:59N 33°44' W 118°12'0 0.5
2018-Jul-14 09:30N 33°44' W 118°12'2 0.6
2018-Jul-14 06:31N 33°45' W 118°13'0 3.0
2018-Jul-14 06:27N 33°46' W 118°13'1 1.3
2018-Jul-14 06:00N 33°46' W 118°13'0 0.1
2018-Jul-14 05:29N 33°46' W 118°13'1 2.3
2018-Jul-14 04:59N 33°45' W 118°13'0 0.0
2018-Jul-14 04:29N 33°45' W 118°13'0 0.0
2018-Jul-14 04:00N 33°45' W 118°13'0 0.0
2018-Jul-14 03:31N 33°45' W 118°13'0 0.0
2018-Jul-14 02:56N 33°45' W 118°13'0 0.0
2018-Jul-14 02:30N 33°45' W 118°13'0 0.7
2018-Jul-14 01:57N 33°45' W 118°12'3 0.6
2018-Jul-13 21:03N 33°44' W 118°16'2 1.1
2018-Jul-13 19:09N 33°43' W 118°13'2 9.6
2018-Jul-13 18:59N 33°43' W 118°11'4 8.3
2018-Jul-13 18:28N 33°44' W 118°06'1 1.6
2018-Jul-13 18:00N 33°44' W 118°06'0 0.0
2018-Jul-13 17:30N 33°44' W 118°06'0 0.0
2018-Jul-13 17:00N 33°44' W 118°06'0 0.0
2018-Jul-13 16:30N 33°44' W 118°06'0 0.0
2018-Jul-13 15:59N 33°44' W 118°06'0 0.1
2018-Jul-13 15:30N 33°44' W 118°06'0 0.1
2018-Jul-13 15:00N 33°44' W 118°06'3 7.1
2018-Jul-13 14:30N 33°44' W 118°10'6 5.4
2018-Jul-13 13:26N 33°45' W 118°16'0 0.1
2018-Jul-13 12:06N 33°45' W 118°16'0 1.5
2018-Jul-13 11:57N 33°45' W 118°16'1 1.4
2018-Jul-13 11:29N 33°45' W 118°16'2 1.6
2018-Jul-13 10:29N 33°44' W 118°16'1 0.2
2018-Jul-13 05:59N 33°45' W 118°16'0 0.2
2018-Jul-13 05:27N 33°45' W 118°16'2 3.6
2018-Jul-13 04:47N 33°43' W 118°15'3 8.9
2018-Jul-13 04:29N 33°45' W 118°13'1 2.8
2018-Jul-13 04:01N 33°46' W 118°13'0 0.1
2018-Jul-13 03:30N 33°46' W 118°13'2 3.1
2018-Jul-13 03:00N 33°45' W 118°13'4 7.1
2018-Jul-13 02:30N 33°42' W 118°11'1 1.8
2018-Jul-13 01:59N 33°42' W 118°12'2 3.9
2018-Jul-13 01:28N 33°42' W 118°14'2 4.4
2018-Jul-13 01:00N 33°44' W 118°16'0 0.0
2018-Jul-13 00:30N 33°44' W 118°16'0 0.1
2018-Jul-12 23:46N 33°44' W 118°16'1 2.7
2018-Jul-12 23:21N 33°43' W 118°15'2 6.2
2018-Jul-12 22:58N 33°44' W 118°12'2 3.8
2018-Jul-12 22:29N 33°45' W 118°14'0 0.5
2018-Jul-12 22:00N 33°45' W 118°14'1 2.6
2018-Jul-12 21:31N 33°44' W 118°13'2 3.1
2018-Jul-12 21:00N 33°43' W 118°11'4 7.0
2018-Jul-12 20:28N 33°44' W 118°16'0 0.2
2018-Jul-12 20:00N 33°44' W 118°16'0 0.0
2018-Jul-12 19:29N 33°44' W 118°16'0 0.0
2018-Jul-12 19:00N 33°44' W 118°16'0 0.0
2018-Jul-12 18:30N 33°44' W 118°16'0 0.0
2018-Jul-12 18:00N 33°44' W 118°16'0 0.0
2018-Jul-12 17:29N 33°44' W 118°16'0 0.0
2018-Jul-12 17:01N 33°44' W 118°16'0 0.0
2018-Jul-12 16:31N 33°44' W 118°16'0 0.0
2018-Jul-12 16:00N 33°44' W 118°16'0 0.0
2018-Jul-12 15:31N 33°44' W 118°16'0 0.0
2018-Jul-12 15:00N 33°44' W 118°16'0 0.0
2018-Jul-12 14:29N 33°44' W 118°16'0 0.0
2018-Jul-12 14:01N 33°44' W 118°16'0 0.0
2018-Jul-12 13:30N 33°44' W 118°16'0 0.0
2018-Jul-12 13:00N 33°44' W 118°16'0 0.0
2018-Jul-12 11:09N 33°44' W 118°16'0 0.0
2018-Jul-12 11:00N 33°44' W 118°16'0 0.0
2018-Jul-12 10:28N 33°44' W 118°16'0 0.0
2018-Jul-12 09:55N 33°44' W 118°16'0 0.0
2018-Jul-12 09:21N 33°44' W 118°16'0 0.0
2018-Jul-12 08:56N 33°44' W 118°16'0 0.0
2018-Jul-12 08:24N 33°44' W 118°16'0 0.0
2018-Jul-12 07:11N 33°44' W 118°16'0 0.0
2018-Jul-12 06:57N 33°44' W 118°16'0 0.0
2018-Jul-12 06:30N 33°44' W 118°16'0 0.0
2018-Jul-12 06:00N 33°44' W 118°16'0 0.0
2018-Jul-12 03:37N 33°44' W 118°16'0 0.0
2018-Jul-12 03:27N 33°44' W 118°16'0 0.0
2018-Jul-12 03:00N 33°44' W 118°16'0 0.0
2018-Jul-12 02:30N 33°44' W 118°16'0 0.0
2018-Jul-12 02:00N 33°44' W 118°16'1 1.9
2018-Jul-12 01:30N 33°43' W 118°15'511.0
2018-Jul-12 01:01N 33°41' W 118°09'1 1.9
2018-Jul-12 00:30N 33°40' W 118°09'3 5.3
2018-Jul-11 23:53N 33°37' W 118°09'2 5.3
2018-Jul-11 23:29N 33°35' W 118°09'4 8.5
2018-Jul-11 23:00N 33°31' W 118°07'4 8.7
2018-Jul-11 22:30N 33°27' W 118°05'1511.0
2018-Jul-11 21:10N 33°14' W 117°58'411.0
2018-Jul-11 20:51N 33°10' W 117°57'1211.4
2018-Jul-11 19:45N 32°59' W 117°51'311.0
2018-Jul-11 19:27N 32°56' W 117°49'711.0
2018-Jul-11 18:52N 32°50' W 117°45'411.4
2018-Jul-11 18:30N 32°47' W 117°43'611.9
2018-Jul-11 18:00N 32°41' W 117°40'56 3.1
2018-Jul-10 23:52N 31°47' W 117°23'1 0.6
2018-Jul-10 22:43N 31°47' W 117°24'42 4.0
2018-Jul-10 12:08N 32°24' W 117°48'210.2
2018-Jul-10 11:55N 32°26' W 117°49'510.1
2018-Jul-10 11:28N 32°30' W 117°50'510.0
2018-Jul-10 11:00N 32°35' W 117°52'1610.3
2018-Jul-10 09:29N 32°50' W 117°56'2310.3
2018-Jul-10 07:13N 33°12' W 118°05'311.2
2018-Jul-10 06:59N 33°15' W 118°06'1411.2
2018-Jul-10 05:47N 33°28' W 118°11'511.5
2018-Jul-10 05:18N 33°33' W 118°13'311.2
2018-Jul-10 05:00N 33°36' W 118°14'610.9
2018-Jul-10 04:29N 33°42' W 118°15'2 4.7
2018-Jul-10 03:58N 33°44' W 118°16'0 0.0
2018-Jul-10 03:30N 33°44' W 118°16'0 0.0
2018-Jul-10 03:00N 33°44' W 118°16'0 0.0
2018-Jul-10 02:31N 33°44' W 118°16'0 0.0
2018-Jul-10 01:58N 33°44' W 118°16'0 0.0
2018-Jul-10 01:30N 33°44' W 118°16'1 0.5
2018-Jul-10 00:09N 33°44' W 118°16'0 0.0
2018-Jul-09 23:38N 33°44' W 118°16'1 4.3
2018-Jul-09 23:29N 33°43' W 118°16'0 0.8
2018-Jul-09 22:58N 33°44' W 118°16'  
Track history (hours):
 
Tides and Currents Weather Stations Pressure Air Temp Water Temp Dewpoint Dewpoint Depression Visibility Wind Speed Wind Dir Waves Ship Positions

Robert Franco

Owner: Harley Marine Services, Inc, Seattle, WA. More information available from US FCC via Universal Licensing System and Coast Guard Vessel Documentation Center.

Last reported at 2018-Jul-19 22:35 UTC. Time now 2018-Jul-19 23:14 UTC.
Position N 33°45' W 118°16'.

Length 30 m; draft 5.7 m.

Type: Tow > 200 m length. MMSI: 367569830.

Date/timePositionNaut miles runAvg speedWind from/ knotsBaromVisibWave heightAir tempDewpointWater temp
2018-Jul-19 22:35N 33°45' W 118°16'0 0.2
2018-Jul-19 22:29N 33°45' W 118°16'1 0.4
2018-Jul-19 18:31N 33°44' W 118°16'0 0.0
2018-Jul-19 15:16N 33°44' W 118°16'3 2.0
2018-Jul-19 13:46N 33°44' W 118°12'2 8.5
2018-Jul-19 13:30N 33°44' W 118°09'1 1.0
2018-Jul-19 12:54N 33°44' W 118°10'3 3.4
2018-Jul-19 12:07N 33°45' W 118°13'0 0.0
2018-Jul-19 11:57N 33°45' W 118°13'0 0.0
2018-Jul-19 11:11N 33°45' W 118°13'0 0.0
2018-Jul-19 10:57N 33°45' W 118°13'0 0.0
2018-Jul-19 09:12N 33°45' W 118°13'0 0.0
2018-Jul-19 08:42N 33°45' W 118°13'2 0.3
2018-Jul-19 01:53N 33°46' W 118°16'1 0.1
2018-Jul-18 21:12N 33°45' W 118°16'1 2.5
2018-Jul-18 20:38N 33°44' W 118°16'0 0.0
2018-Jul-18 20:28N 33°44' W 118°16'0 0.0
2018-Jul-18 19:43N 33°44' W 118°16'0 0.0
2018-Jul-18 19:26N 33°44' W 118°16'0 0.0
2018-Jul-18 19:01N 33°44' W 118°16'0 0.0
2018-Jul-18 18:29N 33°44' W 118°16'0 0.0
2018-Jul-18 17:52N 33°44' W 118°16'0 0.0
2018-Jul-18 17:27N 33°44' W 118°16'1 0.6
2018-Jul-18 15:28N 33°45' W 118°16'0 0.0
2018-Jul-18 13:42N 33°45' W 118°16'1 0.4
2018-Jul-18 11:59N 33°46' W 118°16'1 0.1
2018-Jul-18 02:26N 33°45' W 118°16'4 1.5
2018-Jul-17 23:56N 33°44' W 118°12'2 4.0
2018-Jul-17 23:28N 33°44' W 118°10'0 0.0
2018-Jul-17 22:58N 33°44' W 118°10'3 2.5
2018-Jul-17 21:48N 33°45' W 118°13'2 7.4
2018-Jul-17 21:30N 33°43' W 118°11'1 1.0
2018-Jul-17 21:00N 33°44' W 118°12'3 3.5
2018-Jul-17 20:03N 33°44' W 118°16'0 0.0
2018-Jul-17 19:51N 33°44' W 118°16'0 0.0
2018-Jul-17 19:21N 33°44' W 118°16'1 0.4
2018-Jul-17 17:04N 33°44' W 118°17'0 7.9
2018-Jul-17 17:00N 33°45' W 118°16'0 0.7
2018-Jul-17 16:25N 33°45' W 118°16'0 0.1
2018-Jul-17 15:58N 33°45' W 118°16'4 4.4
2018-Jul-17 15:01N 33°42' W 118°13'0 0.3
2018-Jul-17 15:00N 33°42' W 118°13'4 0.2
2018-Jul-16 22:48N 33°45' W 118°17'1 3.9
2018-Jul-16 22:30N 33°46' W 118°16'0 0.8
2018-Jul-16 22:00N 33°45' W 118°17'2 0.5
2018-Jul-16 18:23N 33°44' W 118°16'0 0.0
2018-Jul-16 17:55N 33°44' W 118°16'0 0.0
2018-Jul-16 17:31N 33°44' W 118°16'0 0.0
2018-Jul-16 16:42N 33°44' W 118°16'0 0.0
2018-Jul-16 16:25N 33°44' W 118°16'2 1.6
2018-Jul-16 14:58N 33°46' W 118°15'2 0.7
2018-Jul-16 12:39N 33°45' W 118°16'0 0.6
2018-Jul-16 12:23N 33°45' W 118°16'0 0.1
2018-Jul-16 11:59N 33°45' W 118°16'0 0.0
2018-Jul-16 02:29N 33°45' W 118°16'1 0.2
2018-Jul-15 22:55N 33°45' W 118°16'3 5.6
2018-Jul-15 22:20N 33°43' W 118°13'1 3.4
2018-Jul-15 21:58N 33°44' W 118°12'1 1.2
2018-Jul-15 21:30N 33°44' W 118°11'2 3.0
2018-Jul-15 20:44N 33°42' W 118°13'3 8.1
2018-Jul-15 20:22N 33°44' W 118°16'0 0.0
2018-Jul-15 19:56N 33°44' W 118°16'0 0.0
2018-Jul-15 18:07N 33°44' W 118°16'0 0.0
2018-Jul-15 13:56N 33°44' W 118°16'1 3.1
2018-Jul-15 13:30N 33°45' W 118°16'0 0.7
2018-Jul-15 13:00N 33°45' W 118°16'0 0.3
2018-Jul-15 11:31N 33°45' W 118°16'3 0.3
2018-Jul-15 01:24N 33°44' W 118°13'0 0.0
2018-Jul-15 00:57N 33°44' W 118°13'0 0.0
2018-Jul-14 23:52N 33°44' W 118°13'2 0.5
2018-Jul-14 19:24N 33°44' W 118°16'0 0.0
2018-Jul-14 18:59N 33°44' W 118°16'2 1.6
2018-Jul-14 17:38N 33°44' W 118°13'1 0.4
2018-Jul-14 16:10N 33°43' W 118°13'1 8.6
2018-Jul-14 16:00N 33°44' W 118°12'4 8.7
2018-Jul-14 15:30N 33°44' W 118°07'1 2.0
2018-Jul-14 14:59N 33°44' W 118°06'4 4.3
2018-Jul-14 14:00N 33°44' W 118°11'2 4.1
2018-Jul-14 13:26N 33°45' W 118°13'1 2.9
2018-Jul-14 13:01N 33°46' W 118°13'0 0.0
2018-Jul-14 12:27N 33°46' W 118°13'0 0.0
2018-Jul-14 12:00N 33°46' W 118°13'0 0.0
2018-Jul-14 11:30N 33°46' W 118°13'1 1.1
2018-Jul-14 10:47N 33°45' W 118°13'0 0.7
2018-Jul-14 10:30N 33°45' W 118°13'1 2.6
2018-Jul-14 09:59N 33°44' W 118°12'0 0.5
2018-Jul-14 09:30N 33°44' W 118°12'2 0.6
2018-Jul-14 06:31N 33°45' W 118°13'0 3.0
2018-Jul-14 06:27N 33°46' W 118°13'1 1.3
2018-Jul-14 06:00N 33°46' W 118°13'0 0.1
2018-Jul-14 05:29N 33°46' W 118°13'1 2.3
2018-Jul-14 04:59N 33°45' W 118°13'0 0.0
2018-Jul-14 04:29N 33°45' W 118°13'0 0.0
2018-Jul-14 04:00N 33°45' W 118°13'0 0.0
2018-Jul-14 03:31N 33°45' W 118°13'0 0.0
2018-Jul-14 02:56N 33°45' W 118°13'0 0.0
2018-Jul-14 02:30N 33°45' W 118°13'0 0.7
2018-Jul-14 01:57N 33°45' W 118°12'3 0.6
2018-Jul-13 21:03N 33°44' W 118°16'2 1.1
2018-Jul-13 19:09N 33°43' W 118°13'2 9.6
2018-Jul-13 18:59N 33°43' W 118°11'4 8.3
2018-Jul-13 18:28N 33°44' W 118°06'1 1.6
2018-Jul-13 18:00N 33°44' W 118°06'0 0.0
2018-Jul-13 17:30N 33°44' W 118°06'0 0.0
2018-Jul-13 17:00N 33°44' W 118°06'0 0.0
2018-Jul-13 16:30N 33°44' W 118°06'0 0.0
2018-Jul-13 15:59N 33°44' W 118°06'0 0.1
2018-Jul-13 15:30N 33°44' W 118°06'0 0.1
2018-Jul-13 15:00N 33°44' W 118°06'3 7.1
2018-Jul-13 14:30N 33°44' W 118°10'6 5.4
2018-Jul-13 13:26N 33°45' W 118°16'0 0.1
2018-Jul-13 12:06N 33°45' W 118°16'0 1.5
2018-Jul-13 11:57N 33°45' W 118°16'1 1.4
2018-Jul-13 11:29N 33°45' W 118°16'2 1.6
2018-Jul-13 10:29N 33°44' W 118°16'1 0.2
2018-Jul-13 05:59N 33°45' W 118°16'0 0.2
2018-Jul-13 05:27N 33°45' W 118°16'2 3.6
2018-Jul-13 04:47N 33°43' W 118°15'3 8.9
2018-Jul-13 04:29N 33°45' W 118°13'1 2.8
2018-Jul-13 04:01N 33°46' W 118°13'0 0.1
2018-Jul-13 03:30N 33°46' W 118°13'2 3.1
2018-Jul-13 03:00N 33°45' W 118°13'4 7.1
2018-Jul-13 02:30N 33°42' W 118°11'1 1.8
2018-Jul-13 01:59N 33°42' W 118°12'2 3.9
2018-Jul-13 01:28N 33°42' W 118°14'2 4.4
2018-Jul-13 01:00N 33°44' W 118°16'0 0.0
2018-Jul-13 00:30N 33°44' W 118°16'0 0.1
2018-Jul-12 23:46N 33°44' W 118°16'1 2.7
2018-Jul-12 23:21N 33°43' W 118°15'2 6.2
2018-Jul-12 22:58N 33°44' W 118°12'2 3.8
2018-Jul-12 22:29N 33°45' W 118°14'0 0.5
2018-Jul-12 22:00N 33°45' W 118°14'1 2.6
2018-Jul-12 21:31N 33°44' W 118°13'2 3.1
2018-Jul-12 21:00N 33°43' W 118°11'4 7.0
2018-Jul-12 20:28N 33°44' W 118°16'0 0.2
2018-Jul-12 20:00N 33°44' W 118°16'0 0.0
2018-Jul-12 19:29N 33°44' W 118°16'0 0.0
2018-Jul-12 19:00N 33°44' W 118°16'0 0.0
2018-Jul-12 18:30N 33°44' W 118°16'0 0.0
2018-Jul-12 18:00N 33°44' W 118°16'0 0.0
2018-Jul-12 17:29N 33°44' W 118°16'0 0.0
2018-Jul-12 17:01N 33°44' W 118°16'0 0.0
2018-Jul-12 16:31N 33°44' W 118°16'0 0.0
2018-Jul-12 16:00N 33°44' W 118°16'0 0.0
2018-Jul-12 15:31N 33°44' W 118°16'0 0.0
2018-Jul-12 15:00N 33°44' W 118°16'0 0.0
2018-Jul-12 14:29N 33°44' W 118°16'0 0.0
2018-Jul-12 14:01N 33°44' W 118°16'0 0.0
2018-Jul-12 13:30N 33°44' W 118°16'0 0.0
2018-Jul-12 13:00N 33°44' W 118°16'0 0.0
2018-Jul-12 11:09N 33°44' W 118°16'0 0.0
2018-Jul-12 11:00N 33°44' W 118°16'0 0.0
2018-Jul-12 10:28N 33°44' W 118°16'0 0.0
2018-Jul-12 09:55N 33°44' W 118°16'0 0.0
2018-Jul-12 09:21N 33°44' W 118°16'0 0.0
2018-Jul-12 08:56N 33°44' W 118°16'0 0.0
2018-Jul-12 08:24N 33°44' W 118°16'0 0.0
2018-Jul-12 07:11N 33°44' W 118°16'0 0.0
2018-Jul-12 06:57N 33°44' W 118°16'0 0.0
2018-Jul-12 06:30N 33°44' W 118°16'0 0.0
2018-Jul-12 06:00N 33°44' W 118°16'0 0.0
2018-Jul-12 03:37N 33°44' W 118°16'0 0.0
2018-Jul-12 03:27N 33°44' W 118°16'0 0.0
2018-Jul-12 03:00N 33°44' W 118°16'0 0.0
2018-Jul-12 02:30N 33°44' W 118°16'0 0.0
2018-Jul-12 02:00N 33°44' W 118°16'1 1.9
2018-Jul-12 01:30N 33°43' W 118°15'511.0
2018-Jul-12 01:01N 33°41' W 118°09'1 1.9
2018-Jul-12 00:30N 33°40' W 118°09'3 5.3
2018-Jul-11 23:53N 33°37' W 118°09'2 5.3
2018-Jul-11 23:29N 33°35' W 118°09'4 8.5
2018-Jul-11 23:00N 33°31' W 118°07'4 8.7
2018-Jul-11 22:30N 33°27' W 118°05'1511.0
2018-Jul-11 21:10N 33°14' W 117°58'411.0
2018-Jul-11 20:51N 33°10' W 117°57'1211.4
2018-Jul-11 19:45N 32°59' W 117°51'311.0
2018-Jul-11 19:27N 32°56' W 117°49'711.0
2018-Jul-11 18:52N 32°50' W 117°45'411.4
2018-Jul-11 18:30N 32°47' W 117°43'611.9
2018-Jul-11 18:00N 32°41' W 117°40'56 3.1
2018-Jul-10 23:52N 31°47' W 117°23'1 0.6
2018-Jul-10 22:43N 31°47' W 117°24'42 4.0
2018-Jul-10 12:08N 32°24' W 117°48'210.2
2018-Jul-10 11:55N 32°26' W 117°49'510.1
2018-Jul-10 11:28N 32°30' W 117°50'510.0
2018-Jul-10 11:00N 32°35' W 117°52'1610.3
2018-Jul-10 09:29N 32°50' W 117°56'2310.3
2018-Jul-10 07:13N 33°12' W 118°05'311.2
2018-Jul-10 06:59N 33°15' W 118°06'1411.2
2018-Jul-10 05:47N 33°28' W 118°11'511.5
2018-Jul-10 05:18N 33°33' W 118°13'311.2
2018-Jul-10 05:00N 33°36' W 118°14'610.9
2018-Jul-10 04:29N 33°42' W 118°15'2 4.7
2018-Jul-10 03:58N 33°44' W 118°16'0 0.0
2018-Jul-10 03:30N 33°44' W 118°16'0 0.0
2018-Jul-10 03:00N 33°44' W 118°16'0 0.0
2018-Jul-10 02:31N 33°44' W 118°16'0 0.0
2018-Jul-10 01:58N 33°44' W 118°16'0 0.0
2018-Jul-10 01:30N 33°44' W 118°16'1 0.5
2018-Jul-10 00:09N 33°44' W 118°16'0 0.0
2018-Jul-09 23:38N 33°44' W 118°16'1 4.3
2018-Jul-09 23:29N 33°43' W 118°16'0 0.8
2018-Jul-09 22:58N 33°44' W 118°16'  

Dump ship's entire track history